sensor_id;sensor_type;location;lat;lon;timestamp;temperature;humidity
15160;DHT22;7680;48.800;9.680;2023-04-15T00:01:04;4.70;99.90
15160;DHT22;7680;48.800;9.680;2023-04-15T00:03:38;4.70;99.90
15160;DHT22;7680;48.800;9.680;2023-04-15T00:06:12;4.70;99.90
15160;DHT22;7680;48.800;9.680;2023-04-15T00:08:45;4.70;99.90
15160;DHT22;7680;48.800;9.680;2023-04-15T00:11:18;4.70;99.90
15160;DHT22;7680;48.800;9.680;2023-04-15T00:13:51;4.70;99.90
15160;DHT22;7680;48.800;9.680;2023-04-15T00:16:25;4.60;99.90
15160;DHT22;7680;48.800;9.680;2023-04-15T00:19:00;4.60;99.90
15160;DHT22;7680;48.800;9.680;2023-04-15T00:21:33;4.70;99.90
15160;DHT22;7680;48.800;9.680;2023-04-15T00:24:07;4.60;99.90
15160;DHT22;7680;48.800;9.680;2023-04-15T00:26:40;4.60;99.90
15160;DHT22;7680;48.800;9.680;2023-04-15T00:29:13;4.50;99.90
15160;DHT22;7680;48.800;9.680;2023-04-15T00:31:46;4.60;99.90
15160;DHT22;7680;48.800;9.680;2023-04-15T00:34:20;4.60;99.90
15160;DHT22;7680;48.800;9.680;2023-04-15T00:36:53;4.60;99.90
15160;DHT22;7680;48.800;9.680;2023-04-15T00:39:27;4.60;99.90
15160;DHT22;7680;48.800;9.680;2023-04-15T00:42:00;4.70;99.90
15160;DHT22;7680;48.800;9.680;2023-04-15T00:44:34;4.70;99.90
15160;DHT22;7680;48.800;9.680;2023-04-15T00:47:07;4.70;99.90
15160;DHT22;7680;48.800;9.680;2023-04-15T00:49:42;4.70;99.90
15160;DHT22;7680;48.800;9.680;2023-04-15T00:52:15;4.70;99.90
15160;DHT22;7680;48.800;9.680;2023-04-15T00:54:48;4.70;99.90
15160;DHT22;7680;48.800;9.680;2023-04-15T00:57:21;4.60;99.90
15160;DHT22;7680;48.800;9.680;2023-04-15T00:59:55;4.60;99.90
15160;DHT22;7680;48.800;9.680;2023-04-15T01:02:29;4.50;99.90
15160;DHT22;7680;48.800;9.680;2023-04-15T01:05:06;4.60;99.90
15160;DHT22;7680;48.800;9.680;2023-04-15T01:07:39;4.50;99.90
15160;DHT22;7680;48.800;9.680;2023-04-15T01:10:12;4.40;99.90
15160;DHT22;7680;48.800;9.680;2023-04-15T01:12:45;4.30;99.90
15160;DHT22;7680;48.800;9.680;2023-04-15T01:15:19;4.20;99.90
15160;DHT22;7680;48.800;9.680;2023-04-15T01:17:52;4.30;99.90
15160;DHT22;7680;48.800;9.680;2023-04-15T01:20:28;4.20;99.90
15160;DHT22;7680;48.800;9.680;2023-04-15T01:23:01;4.20;99.90
15160;DHT22;7680;48.800;9.680;2023-04-15T01:25:35;4.30;99.90
15160;DHT22;7680;48.800;9.680;2023-04-15T01:28:09;4.20;99.90
15160;DHT22;7680;48.800;9.680;2023-04-15T01:30:42;4.30;99.90
15160;DHT22;7680;48.800;9.680;2023-04-15T01:33:15;4.30;99.90
15160;DHT22;7680;48.800;9.680;2023-04-15T01:35:48;4.20;99.90
15160;DHT22;7680;48.800;9.680;2023-04-15T01:38:21;4.20;99.90
15160;DHT22;7680;48.800;9.680;2023-04-15T01:40:55;4.20;99.90
15160;DHT22;7680;48.800;9.680;2023-04-15T01:43:29;4.20;99.90
15160;DHT22;7680;48.800;9.680;2023-04-15T01:46:03;4.20;99.90
15160;DHT22;7680;48.800;9.680;2023-04-15T01:48:36;4.10;99.90
15160;DHT22;7680;48.800;9.680;2023-04-15T01:51:09;4.20;99.90
15160;DHT22;7680;48.800;9.680;2023-04-15T01:53:42;4.20;99.90
15160;DHT22;7680;48.800;9.680;2023-04-15T01:56:17;4.10;99.90
15160;DHT22;7680;48.800;9.680;2023-04-15T01:58:50;4.00;99.90
15160;DHT22;7680;48.800;9.680;2023-04-15T02:01:23;3.90;99.90
15160;DHT22;7680;48.800;9.680;2023-04-15T02:03:56;3.90;99.90
15160;DHT22;7680;48.800;9.680;2023-04-15T02:06:29;3.90;99.90
15160;DHT22;7680;48.800;9.680;2023-04-15T02:09:02;3.90;99.90
15160;DHT22;7680;48.800;9.680;2023-04-15T02:11:37;3.90;99.90
15160;DHT22;7680;48.800;9.680;2023-04-15T02:14:10;3.80;99.90
15160;DHT22;7680;48.800;9.680;2023-04-15T02:16:43;3.80;99.90
15160;DHT22;7680;48.800;9.680;2023-04-15T02:19:16;3.80;99.90
15160;DHT22;7680;48.800;9.680;2023-04-15T02:21:49;3.80;99.90
15160;DHT22;7680;48.800;9.680;2023-04-15T02:24:22;3.70;99.90
15160;DHT22;7680;48.800;9.680;2023-04-15T02:26:56;3.60;99.90
15160;DHT22;7680;48.800;9.680;2023-04-15T02:29:30;3.60;99.90
15160;DHT22;7680;48.800;9.680;2023-04-15T02:32:04;3.60;99.90
15160;DHT22;7680;48.800;9.680;2023-04-15T02:34:37;3.50;99.90
15160;DHT22;7680;48.800;9.680;2023-04-15T02:37:12;3.50;99.90
15160;DHT22;7680;48.800;9.680;2023-04-15T02:39:46;3.50;99.90
15160;DHT22;7680;48.800;9.680;2023-04-15T02:42:21;3.50;99.90
15160;DHT22;7680;48.800;9.680;2023-04-15T02:44:54;3.50;99.90
15160;DHT22;7680;48.800;9.680;2023-04-15T02:47:27;3.50;99.90
15160;DHT22;7680;48.800;9.680;2023-04-15T02:50:01;3.50;99.90
15160;DHT22;7680;48.800;9.680;2023-04-15T02:52:35;3.60;99.90
15160;DHT22;7680;48.800;9.680;2023-04-15T02:55:08;3.50;99.90
15160;DHT22;7680;48.800;9.680;2023-04-15T02:57:43;3.50;99.90
15160;DHT22;7680;48.800;9.680;2023-04-15T03:00:16;3.50;99.90
15160;DHT22;7680;48.800;9.680;2023-04-15T03:02:50;3.50;99.90
15160;DHT22;7680;48.800;9.680;2023-04-15T03:05:27;3.50;99.90
15160;DHT22;7680;48.800;9.680;2023-04-15T03:08:00;3.50;99.90
15160;DHT22;7680;48.800;9.680;2023-04-15T03:10:33;3.50;99.90
15160;DHT22;7680;48.800;9.680;2023-04-15T03:13:08;3.50;99.90
15160;DHT22;7680;48.800;9.680;2023-04-15T03:15:41;3.50;99.90
15160;DHT22;7680;48.800;9.680;2023-04-15T03:18:14;3.30;99.90
15160;DHT22;7680;48.800;9.680;2023-04-15T03:20:47;3.30;99.90
15160;DHT22;7680;48.800;9.680;2023-04-15T03:23:20;3.10;99.90
15160;DHT22;7680;48.800;9.680;2023-04-15T03:25:53;3.00;99.90
15160;DHT22;7680;48.800;9.680;2023-04-15T03:28:30;3.10;99.90
15160;DHT22;7680;48.800;9.680;2023-04-15T03:31:03;3.10;99.90
15160;DHT22;7680;48.800;9.680;2023-04-15T03:33:36;3.10;99.90
15160;DHT22;7680;48.800;9.680;2023-04-15T03:36:09;3.10;99.90
15160;DHT22;7680;48.800;9.680;2023-04-15T03:38:42;3.00;99.90
15160;DHT22;7680;48.800;9.680;2023-04-15T03:41:15;2.90;99.90
15160;DHT22;7680;48.800;9.680;2023-04-15T03:43:50;3.00;99.90
15160;DHT22;7680;48.800;9.680;2023-04-15T03:46:23;3.00;99.90
15160;DHT22;7680;48.800;9.680;2023-04-15T03:48:56;3.10;99.90
15160;DHT22;7680;48.800;9.680;2023-04-15T03:51:30;3.10;99.90
15160;DHT22;7680;48.800;9.680;2023-04-15T03:54:03;3.10;99.90
15160;DHT22;7680;48.800;9.680;2023-04-15T03:56:36;3.10;99.90
15160;DHT22;7680;48.800;9.680;2023-04-15T03:59:11;3.00;99.90
15160;DHT22;7680;48.800;9.680;2023-04-15T04:01:44;2.90;99.90
15160;DHT22;7680;48.800;9.680;2023-04-15T04:04:17;3.00;99.90
15160;DHT22;7680;48.800;9.680;2023-04-15T04:06:50;3.00;99.90
15160;DHT22;7680;48.800;9.680;2023-04-15T04:09:24;2.90;99.90
15160;DHT22;7680;48.800;9.680;2023-04-15T04:11:57;2.90;99.90
15160;DHT22;7680;48.800;9.680;2023-04-15T04:14:31;2.90;99.90
15160;DHT22;7680;48.800;9.680;2023-04-15T04:17:04;2.80;99.90
15160;DHT22;7680;48.800;9.680;2023-04-15T04:19:38;2.90;99.90
15160;DHT22;7680;48.800;9.680;2023-04-15T04:22:11;3.00;99.90
15160;DHT22;7680;48.800;9.680;2023-04-15T04:24:44;3.00;99.90
15160;DHT22;7680;48.800;9.680;2023-04-15T04:27:17;3.00;99.90
15160;DHT22;7680;48.800;9.680;2023-04-15T04:29:51;3.00;99.90
15160;DHT22;7680;48.800;9.680;2023-04-15T04:32:24;3.10;99.90
15160;DHT22;7680;48.800;9.680;2023-04-15T04:34:58;3.10;99.90
15160;DHT22;7680;48.800;9.680;2023-04-15T04:37:31;3.00;99.90
15160;DHT22;7680;48.800;9.680;2023-04-15T04:40:05;3.00;99.90
15160;DHT22;7680;48.800;9.680;2023-04-15T04:42:40;2.90;99.90
15160;DHT22;7680;48.800;9.680;2023-04-15T04:45:14;2.90;99.90
15160;DHT22;7680;48.800;9.680;2023-04-15T04:47:47;2.90;99.90
15160;DHT22;7680;48.800;9.680;2023-04-15T04:50:20;2.90;99.90
15160;DHT22;7680;48.800;9.680;2023-04-15T04:52:53;2.90;99.90
15160;DHT22;7680;48.800;9.680;2023-04-15T04:55:27;3.00;99.90
15160;DHT22;7680;48.800;9.680;2023-04-15T04:58:00;2.90;99.90
15160;DHT22;7680;48.800;9.680;2023-04-15T05:00:34;2.90;99.90
15160;DHT22;7680;48.800;9.680;2023-04-15T05:03:08;2.90;99.90
15160;DHT22;7680;48.800;9.680;2023-04-15T05:05:42;2.90;99.90
15160;DHT22;7680;48.800;9.680;2023-04-15T05:08:16;2.90;99.90
15160;DHT22;7680;48.800;9.680;2023-04-15T05:10:49;2.90;99.90
15160;DHT22;7680;48.800;9.680;2023-04-15T05:13:22;2.80;99.90
15160;DHT22;7680;48.800;9.680;2023-04-15T05:15:57;2.90;99.90
15160;DHT22;7680;48.800;9.680;2023-04-15T05:18:30;2.90;99.90
15160;DHT22;7680;48.800;9.680;2023-04-15T05:21:04;2.90;99.90
15160;DHT22;7680;48.800;9.680;2023-04-15T05:23:38;2.80;99.90
15160;DHT22;7680;48.800;9.680;2023-04-15T05:26:11;2.70;99.90
15160;DHT22;7680;48.800;9.680;2023-04-15T05:28:44;2.80;99.90
15160;DHT22;7680;48.800;9.680;2023-04-15T05:31:19;2.80;99.90
15160;DHT22;7680;48.800;9.680;2023-04-15T05:33:53;2.90;99.90
15160;DHT22;7680;48.800;9.680;2023-04-15T05:36:26;2.90;99.90
15160;DHT22;7680;48.800;9.680;2023-04-15T05:38:59;3.00;99.90
15160;DHT22;7680;48.800;9.680;2023-04-15T05:41:32;3.10;99.90
15160;DHT22;7680;48.800;9.680;2023-04-15T05:44:05;3.20;99.90
15160;DHT22;7680;48.800;9.680;2023-04-15T05:46:40;3.40;99.90
15160;DHT22;7680;48.800;9.680;2023-04-15T05:49:14;3.60;99.90
15160;DHT22;7680;48.800;9.680;2023-04-15T05:51:47;3.80;99.90
15160;DHT22;7680;48.800;9.680;2023-04-15T05:54:20;4.10;99.90
15160;DHT22;7680;48.800;9.680;2023-04-15T05:56:53;4.20;99.90
15160;DHT22;7680;48.800;9.680;2023-04-15T05:59:28;4.50;99.90
15160;DHT22;7680;48.800;9.680;2023-04-15T06:02:03;4.70;99.90
15160;DHT22;7680;48.800;9.680;2023-04-15T06:04:37;4.90;99.90
15160;DHT22;7680;48.800;9.680;2023-04-15T06:07:10;5.10;99.90
15160;DHT22;7680;48.800;9.680;2023-04-15T06:09:43;5.20;99.90
15160;DHT22;7680;48.800;9.680;2023-04-15T06:12:16;5.30;99.90
15160;DHT22;7680;48.800;9.680;2023-04-15T06:14:49;5.60;99.90
15160;DHT22;7680;48.800;9.680;2023-04-15T06:17:24;5.80;99.90
15160;DHT22;7680;48.800;9.680;2023-04-15T06:19:57;6.10;99.90
15160;DHT22;7680;48.800;9.680;2023-04-15T06:22:30;6.50;99.90
15160;DHT22;7680;48.800;9.680;2023-04-15T06:25:04;6.70;99.90
15160;DHT22;7680;48.800;9.680;2023-04-15T06:27:40;7.00;99.90
15160;DHT22;7680;48.800;9.680;2023-04-15T06:30:13;7.40;99.90
15160;DHT22;7680;48.800;9.680;2023-04-15T06:32:47;7.60;99.90
15160;DHT22;7680;48.800;9.680;2023-04-15T06:35:20;7.80;99.90
15160;DHT22;7680;48.800;9.680;2023-04-15T06:37:53;7.70;99.90
15160;DHT22;7680;48.800;9.680;2023-04-15T06:40:27;7.80;99.90
15160;DHT22;7680;48.800;9.680;2023-04-15T06:43:00;7.90;99.90
15160;DHT22;7680;48.800;9.680;2023-04-15T06:45:33;8.00;99.90
15160;DHT22;7680;48.800;9.680;2023-04-15T06:48:08;8.30;99.90
15160;DHT22;7680;48.800;9.680;2023-04-15T06:50:41;8.60;99.90
15160;DHT22;7680;48.800;9.680;2023-04-15T06:53:14;8.70;99.90
15160;DHT22;7680;48.800;9.680;2023-04-15T06:55:48;8.90;99.90
15160;DHT22;7680;48.800;9.680;2023-04-15T06:58:21;8.90;99.90
15160;DHT22;7680;48.800;9.680;2023-04-15T07:00:54;9.10;99.90
15160;DHT22;7680;48.800;9.680;2023-04-15T07:03:29;9.30;99.90
15160;DHT22;7680;48.800;9.680;2023-04-15T07:06:03;9.60;99.90
15160;DHT22;7680;48.800;9.680;2023-04-15T07:08:37;9.60;99.90
15160;DHT22;7680;48.800;9.680;2023-04-15T07:11:10;9.60;99.90
15160;DHT22;7680;48.800;9.680;2023-04-15T07:13:43;9.60;99.90
15160;DHT22;7680;48.800;9.680;2023-04-15T07:16:17;9.50;99.90
15160;DHT22;7680;48.800;9.680;2023-04-15T07:18:51;9.60;99.90
15160;DHT22;7680;48.800;9.680;2023-04-15T07:21:24;9.70;99.90
15160;DHT22;7680;48.800;9.680;2023-04-15T07:23:58;9.80;99.90
15160;DHT22;7680;48.800;9.680;2023-04-15T07:26:31;9.80;99.90
15160;DHT22;7680;48.800;9.680;2023-04-15T07:29:04;9.80;99.90
15160;DHT22;7680;48.800;9.680;2023-04-15T07:31:39;10.20;99.90
15160;DHT22;7680;48.800;9.680;2023-04-15T07:34:14;10.60;99.90
15160;DHT22;7680;48.800;9.680;2023-04-15T07:36:47;10.80;99.90
15160;DHT22;7680;48.800;9.680;2023-04-15T07:39:21;10.80;99.90
15160;DHT22;7680;48.800;9.680;2023-04-15T07:41:54;10.80;99.90
15160;DHT22;7680;48.800;9.680;2023-04-15T07:44:27;10.90;99.90
15160;DHT22;7680;48.800;9.680;2023-04-15T07:47:01;11.00;99.90
15160;DHT22;7680;48.800;9.680;2023-04-15T07:49:36;11.20;99.90
15160;DHT22;7680;48.800;9.680;2023-04-15T07:52:09;11.40;99.90
15160;DHT22;7680;48.800;9.680;2023-04-15T07:54:42;11.90;99.90
15160;DHT22;7680;48.800;9.680;2023-04-15T07:57:15;12.10;99.90
15160;DHT22;7680;48.800;9.680;2023-04-15T07:59:49;12.10;99.90
15160;DHT22;7680;48.800;9.680;2023-04-15T08:02:22;12.10;99.90
15160;DHT22;7680;48.800;9.680;2023-04-15T08:04:56;11.90;99.90
15160;DHT22;7680;48.800;9.680;2023-04-15T08:07:30;11.80;99.90
15160;DHT22;7680;48.800;9.680;2023-04-15T08:10:04;11.80;99.90
15160;DHT22;7680;48.800;9.680;2023-04-15T08:12:37;11.60;99.90
15160;DHT22;7680;48.800;9.680;2023-04-15T08:15:11;11.50;99.90
15160;DHT22;7680;48.800;9.680;2023-04-15T08:17:44;11.50;99.90
15160;DHT22;7680;48.800;9.680;2023-04-15T08:20:19;11.90;99.90
15160;DHT22;7680;48.800;9.680;2023-04-15T08:22:52;12.10;98.70
15160;DHT22;7680;48.800;9.680;2023-04-15T08:25:25;12.00;99.40
15160;DHT22;7680;48.800;9.680;2023-04-15T08:28:03;12.20;99.90
15160;DHT22;7680;48.800;9.680;2023-04-15T08:30:37;12.20;99.90
15160;DHT22;7680;48.800;9.680;2023-04-15T08:33:10;12.40;99.90
15160;DHT22;7680;48.800;9.680;2023-04-15T08:35:45;12.60;98.70
15160;DHT22;7680;48.800;9.680;2023-04-15T08:38:18;12.60;98.00
15160;DHT22;7680;48.800;9.680;2023-04-15T08:40:51;12.60;98.60
15160;DHT22;7680;48.800;9.680;2023-04-15T08:43:27;12.70;97.40
15160;DHT22;7680;48.800;9.680;2023-04-15T08:46:01;13.00;97.40
15160;DHT22;7680;48.800;9.680;2023-04-15T08:48:37;12.80;97.00
15160;DHT22;7680;48.800;9.680;2023-04-15T08:51:12;13.20;96.70
15160;DHT22;7680;48.800;9.680;2023-04-15T08:53:46;13.30;95.30
15160;DHT22;7680;48.800;9.680;2023-04-15T08:56:24;13.70;96.40
15160;DHT22;7680;48.800;9.680;2023-04-15T08:58:58;13.70;95.80
15160;DHT22;7680;48.800;9.680;2023-04-15T09:01:32;13.80;95.90
15160;DHT22;7680;48.800;9.680;2023-04-15T09:04:05;13.90;95.40
15160;DHT22;7680;48.800;9.680;2023-04-15T09:06:40;14.00;95.10
15160;DHT22;7680;48.800;9.680;2023-04-15T09:09:13;14.10;95.00
15160;DHT22;7680;48.800;9.680;2023-04-15T09:11:46;14.10;94.30
15160;DHT22;7680;48.800;9.680;2023-04-15T09:14:20;14.10;94.70
15160;DHT22;7680;48.800;9.680;2023-04-15T09:16:57;14.40;94.20
15160;DHT22;7680;48.800;9.680;2023-04-15T09:19:31;14.30;94.80
15160;DHT22;7680;48.800;9.680;2023-04-15T09:22:06;14.40;94.10
15160;DHT22;7680;48.800;9.680;2023-04-15T09:24:39;14.60;94.10
15160;DHT22;7680;48.800;9.680;2023-04-15T09:27:15;14.50;93.90
15160;DHT22;7680;48.800;9.680;2023-04-15T09:29:49;14.70;94.30
15160;DHT22;7680;48.800;9.680;2023-04-15T09:32:22;14.60;93.60
15160;DHT22;7680;48.800;9.680;2023-04-15T09:34:55;14.60;94.20
15160;DHT22;7680;48.800;9.680;2023-04-15T09:37:35;14.60;93.50
15160;DHT22;7680;48.800;9.680;2023-04-15T09:40:09;14.60;94.50
15160;DHT22;7680;48.800;9.680;2023-04-15T09:42:54;14.90;94.30
15160;DHT22;7680;48.800;9.680;2023-04-15T09:45:28;14.80;94.40
15160;DHT22;7680;48.800;9.680;2023-04-15T09:48:15;14.80;92.80
15160;DHT22;7680;48.800;9.680;2023-04-15T09:50:49;14.60;92.80
15160;DHT22;7680;48.800;9.680;2023-04-15T09:53:26;14.60;93.40
15160;DHT22;7680;48.800;9.680;2023-04-15T09:56:02;14.40;93.10
15160;DHT22;7680;48.800;9.680;2023-04-15T09:58:38;14.60;93.00
15160;DHT22;7680;48.800;9.680;2023-04-15T10:01:13;14.60;93.00
15160;DHT22;7680;48.800;9.680;2023-04-15T10:03:46;14.50;93.20
15160;DHT22;7680;48.800;9.680;2023-04-15T10:06:19;14.50;93.50
15160;DHT22;7680;48.800;9.680;2023-04-15T10:08:55;14.40;93.80
15160;DHT22;7680;48.800;9.680;2023-04-15T10:11:29;14.10;93.10
15160;DHT22;7680;48.800;9.680;2023-04-15T10:14:03;14.00;94.10
15160;DHT22;7680;48.800;9.680;2023-04-15T10:16:39;13.90;93.60
15160;DHT22;7680;48.800;9.680;2023-04-15T10:19:14;13.80;93.70
15160;DHT22;7680;48.800;9.680;2023-04-15T10:21:48;13.80;94.00
15160;DHT22;7680;48.800;9.680;2023-04-15T10:24:24;13.80;94.30
15160;DHT22;7680;48.800;9.680;2023-04-15T10:26:58;13.90;93.90
15160;DHT22;7680;48.800;9.680;2023-04-15T10:29:31;13.90;93.70
15160;DHT22;7680;48.800;9.680;2023-04-15T10:32:05;14.00;93.50
15160;DHT22;7680;48.800;9.680;2023-04-15T10:34:39;14.10;94.00
15160;DHT22;7680;48.800;9.680;2023-04-15T10:37:12;14.30;93.10
15160;DHT22;7680;48.800;9.680;2023-04-15T10:39:46;14.20;94.00
15160;DHT22;7680;48.800;9.680;2023-04-15T10:42:19;14.10;93.70
15160;DHT22;7680;48.800;9.680;2023-04-15T10:44:56;14.00;93.80
15160;DHT22;7680;48.800;9.680;2023-04-15T10:47:31;13.80;94.00
15160;DHT22;7680;48.800;9.680;2023-04-15T10:50:05;13.70;94.60
15160;DHT22;7680;48.800;9.680;2023-04-15T10:52:40;13.70;94.40
15160;DHT22;7680;48.800;9.680;2023-04-15T10:55:18;13.70;94.00
15160;DHT22;7680;48.800;9.680;2023-04-15T10:57:54;13.70;94.50
15160;DHT22;7680;48.800;9.680;2023-04-15T11:00:32;13.70;94.80
15160;DHT22;7680;48.800;9.680;2023-04-15T11:03:07;13.70;94.10
15160;DHT22;7680;48.800;9.680;2023-04-15T11:05:48;13.60;93.10
15160;DHT22;7680;48.800;9.680;2023-04-15T11:08:54;13.60;93.40
15160;DHT22;7680;48.800;9.680;2023-04-15T11:12:05;13.60;91.80
15160;DHT22;7680;48.800;9.680;2023-04-15T11:14:40;13.50;92.10
15160;DHT22;7680;48.800;9.680;2023-04-15T11:17:13;13.60;91.70
15160;DHT22;7680;48.800;9.680;2023-04-15T11:19:47;13.60;92.30
15160;DHT22;7680;48.800;9.680;2023-04-15T11:22:20;13.60;91.40
15160;DHT22;7680;48.800;9.680;2023-04-15T11:24:53;13.60;92.00
15160;DHT22;7680;48.800;9.680;2023-04-15T11:27:29;13.70;91.50
15160;DHT22;7680;48.800;9.680;2023-04-15T11:30:17;13.70;92.40
15160;DHT22;7680;48.800;9.680;2023-04-15T11:32:53;13.80;92.40
15160;DHT22;7680;48.800;9.680;2023-04-15T11:35:27;13.80;93.30
15160;DHT22;7680;48.800;9.680;2023-04-15T11:38:02;13.80;92.20
15160;DHT22;7680;48.800;9.680;2023-04-15T11:40:37;13.90;92.60
15160;DHT22;7680;48.800;9.680;2023-04-15T11:43:13;13.90;92.10
15160;DHT22;7680;48.800;9.680;2023-04-15T11:45:52;13.80;92.50
15160;DHT22;7680;48.800;9.680;2023-04-15T11:48:27;13.80;93.10
15160;DHT22;7680;48.800;9.680;2023-04-15T11:51:03;13.80;92.80
15160;DHT22;7680;48.800;9.680;2023-04-15T11:53:39;13.80;93.50
15160;DHT22;7680;48.800;9.680;2023-04-15T11:56:16;13.70;93.10
15160;DHT22;7680;48.800;9.680;2023-04-15T11:58:53;13.50;92.90
15160;DHT22;7680;48.800;9.680;2023-04-15T12:01:31;13.50;93.10
15160;DHT22;7680;48.800;9.680;2023-04-15T12:04:10;13.30;93.20
15160;DHT22;7680;48.800;9.680;2023-04-15T12:06:44;13.30;93.40
15160;DHT22;7680;48.800;9.680;2023-04-15T12:09:18;13.50;93.00
15160;DHT22;7680;48.800;9.680;2023-04-15T12:11:55;13.60;93.00
15160;DHT22;7680;48.800;9.680;2023-04-15T12:14:31;13.40;93.50
15160;DHT22;7680;48.800;9.680;2023-04-15T12:17:05;13.30;94.40
15160;DHT22;7680;48.800;9.680;2023-04-15T12:19:40;13.20;93.80
15160;DHT22;7680;48.800;9.680;2023-04-15T12:22:15;13.20;93.50
15160;DHT22;7680;48.800;9.680;2023-04-15T12:24:54;13.00;93.80
15160;DHT22;7680;48.800;9.680;2023-04-15T12:27:28;13.00;94.30
15160;DHT22;7680;48.800;9.680;2023-04-15T12:30:05;13.00;94.90
15160;DHT22;7680;48.800;9.680;2023-04-15T12:32:39;13.10;95.30
15160;DHT22;7680;48.800;9.680;2023-04-15T12:35:14;13.40;92.30
15160;DHT22;7680;48.800;9.680;2023-04-15T12:37:47;13.40;90.70
15160;DHT22;7680;48.800;9.680;2023-04-15T12:40:20;13.40;91.30
15160;DHT22;7680;48.800;9.680;2023-04-15T12:42:53;13.50;88.70
15160;DHT22;7680;48.800;9.680;2023-04-15T12:45:28;13.50;91.00
15160;DHT22;7680;48.800;9.680;2023-04-15T12:48:02;13.50;90.20
15160;DHT22;7680;48.800;9.680;2023-04-15T12:50:35;13.60;90.30
15160;DHT22;7680;48.800;9.680;2023-04-15T12:53:08;13.70;88.70
15160;DHT22;7680;48.800;9.680;2023-04-15T12:55:41;13.50;85.30
15160;DHT22;7680;48.800;9.680;2023-04-15T12:58:14;13.40;86.80
15160;DHT22;7680;48.800;9.680;2023-04-15T13:00:50;13.40;87.80
15160;DHT22;7680;48.800;9.680;2023-04-15T13:03:23;13.30;87.30
15160;DHT22;7680;48.800;9.680;2023-04-15T13:05:56;13.30;89.10
15160;DHT22;7680;48.800;9.680;2023-04-15T13:08:29;13.20;87.00
15160;DHT22;7680;48.800;9.680;2023-04-15T13:11:02;13.20;87.10
15160;DHT22;7680;48.800;9.680;2023-04-15T13:13:36;13.10;89.00
15160;DHT22;7680;48.800;9.680;2023-04-15T13:16:10;13.10;90.00
15160;DHT22;7680;48.800;9.680;2023-04-15T13:18:44;13.00;90.70
15160;DHT22;7680;48.800;9.680;2023-04-15T13:21:18;12.90;91.20
15160;DHT22;7680;48.800;9.680;2023-04-15T13:23:51;12.90;92.20
15160;DHT22;7680;48.800;9.680;2023-04-15T13:26:24;12.90;91.90
15160;DHT22;7680;48.800;9.680;2023-04-15T13:28:58;12.80;92.60
15160;DHT22;7680;48.800;9.680;2023-04-15T13:31:33;12.60;93.60
15160;DHT22;7680;48.800;9.680;2023-04-15T13:34:07;12.50;92.70
15160;DHT22;7680;48.800;9.680;2023-04-15T13:36:40;12.40;91.40
15160;DHT22;7680;48.800;9.680;2023-04-15T13:39:13;12.30;91.90
15160;DHT22;7680;48.800;9.680;2023-04-15T13:41:46;12.30;89.00
15160;DHT22;7680;48.800;9.680;2023-04-15T13:44:20;12.10;88.30
15160;DHT22;7680;48.800;9.680;2023-04-15T13:46:54;12.10;91.20
15160;DHT22;7680;48.800;9.680;2023-04-15T13:49:27;12.10;91.10
15160;DHT22;7680;48.800;9.680;2023-04-15T13:52:01;12.10;90.10
15160;DHT22;7680;48.800;9.680;2023-04-15T13:54:34;12.10;90.20
15160;DHT22;7680;48.800;9.680;2023-04-15T13:57:08;12.10;90.70
15160;DHT22;7680;48.800;9.680;2023-04-15T13:59:41;12.00;90.70
15160;DHT22;7680;48.800;9.680;2023-04-15T14:02:16;12.10;90.30
15160;DHT22;7680;48.800;9.680;2023-04-15T14:04:50;12.10;90.30
15160;DHT22;7680;48.800;9.680;2023-04-15T14:07:23;12.10;89.50
15160;DHT22;7680;48.800;9.680;2023-04-15T14:09:56;12.20;90.00
15160;DHT22;7680;48.800;9.680;2023-04-15T14:12:29;12.30;88.00
15160;DHT22;7680;48.800;9.680;2023-04-15T14:15:02;12.20;87.80
15160;DHT22;7680;48.800;9.680;2023-04-15T14:17:37;12.10;89.90
15160;DHT22;7680;48.800;9.680;2023-04-15T14:20:13;12.10;90.30
15160;DHT22;7680;48.800;9.680;2023-04-15T14:22:48;12.10;88.00
15160;DHT22;7680;48.800;9.680;2023-04-15T14:25:21;12.10;86.90
15160;DHT22;7680;48.800;9.680;2023-04-15T14:28:04;12.00;85.50
15160;DHT22;7680;48.800;9.680;2023-04-15T14:30:37;12.00;87.50
15160;DHT22;7680;48.800;9.680;2023-04-15T14:33:12;11.90;87.10
15160;DHT22;7680;48.800;9.680;2023-04-15T14:35:45;11.90;87.80
15160;DHT22;7680;48.800;9.680;2023-04-15T14:38:18;11.80;88.00
15160;DHT22;7680;48.800;9.680;2023-04-15T14:40:53;11.70;88.10
15160;DHT22;7680;48.800;9.680;2023-04-15T14:43:26;11.70;89.80
15160;DHT22;7680;48.800;9.680;2023-04-15T14:45:59;11.60;90.30
15160;DHT22;7680;48.800;9.680;2023-04-15T14:48:34;11.60;91.10
15160;DHT22;7680;48.800;9.680;2023-04-15T14:51:07;11.50;91.30
15160;DHT22;7680;48.800;9.680;2023-04-15T14:53:40;11.50;91.80
15160;DHT22;7680;48.800;9.680;2023-04-15T14:56:13;11.50;92.60
15160;DHT22;7680;48.800;9.680;2023-04-15T14:58:46;11.50;92.40
15160;DHT22;7680;48.800;9.680;2023-04-15T15:01:20;11.60;93.30
15160;DHT22;7680;48.800;9.680;2023-04-15T15:03:54;11.60;92.80
15160;DHT22;7680;48.800;9.680;2023-04-15T15:06:27;11.60;92.80
15160;DHT22;7680;48.800;9.680;2023-04-15T15:09:00;11.50;93.30
15160;DHT22;7680;48.800;9.680;2023-04-15T15:11:34;11.50;93.90
15160;DHT22;7680;48.800;9.680;2023-04-15T15:14:07;11.40;94.40
15160;DHT22;7680;48.800;9.680;2023-04-15T15:16:40;11.40;94.60
15160;DHT22;7680;48.800;9.680;2023-04-15T15:19:15;11.30;94.70
15160;DHT22;7680;48.800;9.680;2023-04-15T15:21:48;11.30;94.80
15160;DHT22;7680;48.800;9.680;2023-04-15T15:24:21;11.30;94.80
15160;DHT22;7680;48.800;9.680;2023-04-15T15:26:54;11.20;95.10
15160;DHT22;7680;48.800;9.680;2023-04-15T15:29:27;11.20;95.40
15160;DHT22;7680;48.800;9.680;2023-04-15T15:32:00;11.20;96.30
15160;DHT22;7680;48.800;9.680;2023-04-15T15:34:35;11.10;96.80
15160;DHT22;7680;48.800;9.680;2023-04-15T15:37:08;11.00;97.20
15160;DHT22;7680;48.800;9.680;2023-04-15T15:39:41;11.00;97.70
15160;DHT22;7680;48.800;9.680;2023-04-15T15:42:14;10.80;98.50
15160;DHT22;7680;48.800;9.680;2023-04-15T15:44:48;10.70;99.70
15160;DHT22;7680;48.800;9.680;2023-04-15T15:47:23;10.60;99.90
15160;DHT22;7680;48.800;9.680;2023-04-15T15:49:59;10.60;99.90
15160;DHT22;7680;48.800;9.680;2023-04-15T15:52:34;10.60;99.90
15160;DHT22;7680;48.800;9.680;2023-04-15T15:55:08;10.50;99.90
15160;DHT22;7680;48.800;9.680;2023-04-15T15:57:41;10.40;99.90
15160;DHT22;7680;48.800;9.680;2023-04-15T16:00:14;10.20;99.90
15160;DHT22;7680;48.800;9.680;2023-04-15T16:02:47;10.10;99.90
15160;DHT22;7680;48.800;9.680;2023-04-15T16:05:38;10.10;99.90
15160;DHT22;7680;48.800;9.680;2023-04-15T16:08:11;10.00;99.90
15160;DHT22;7680;48.800;9.680;2023-04-15T16:10:45;10.00;99.90
15160;DHT22;7680;48.800;9.680;2023-04-15T16:13:18;9.80;99.90
15160;DHT22;7680;48.800;9.680;2023-04-15T16:15:51;9.70;99.90
15160;DHT22;7680;48.800;9.680;2023-04-15T16:18:24;9.60;99.90
15160;DHT22;7680;48.800;9.680;2023-04-15T16:20:58;9.50;99.90
15160;DHT22;7680;48.800;9.680;2023-04-15T16:23:32;9.40;99.90
15160;DHT22;7680;48.800;9.680;2023-04-15T16:26:05;9.40;99.90
15160;DHT22;7680;48.800;9.680;2023-04-15T16:28:38;9.20;99.90
15160;DHT22;7680;48.800;9.680;2023-04-15T16:31:11;9.20;99.90
15160;DHT22;7680;48.800;9.680;2023-04-15T16:33:44;9.10;99.90
15160;DHT22;7680;48.800;9.680;2023-04-15T16:36:19;9.10;99.90